Time;durP1;ratioP1;P1;durP2;ratioP2;P2;SDS_P1;SDS_P2;PMS_P1;PMS_P2;Temp;Humidity;BMP_temperature;BMP_pressure;BME280_temperature;BME280_humidity;BME280_pressure;Samples;Min_cycle;Max_cycle;Signal;HPM_P1;HPM_P2
2022/09/29 00:02:58;;;;;;;37.10;17.58;;;9.90;99.90;;;;;;9855603;30;20063;-78
2022/09/29 00:07:58;;;;;;;38.33;19.50;;;9.80;99.90;;;;;;9860761;30;20412;-79
2022/09/29 00:12:59;;;;;;;48.17;22.23;;;9.90;99.90;;;;;;9860302;30;20040;-78
2022/09/29 00:17:59;;;;;;;42.30;19.00;;;9.80;99.90;;;;;;9860928;30;20490;-79
2022/09/29 00:23:00;;;;;;;51.45;25.58;;;9.70;99.90;;;;;;9860883;30;20046;-79
2022/09/29 00:28:01;;;;;;;62.53;29.60;;;9.60;99.90;;;;;;9857103;30;20047;-81
2022/09/29 00:33:01;;;;;;;60.97;31.20;;;9.60;99.90;;;;;;9865196;30;20047;-78
2022/09/29 00:38:02;;;;;;;58.60;31.43;;;9.60;99.90;;;;;;9868867;30;20046;-79
2022/09/29 00:43:02;;;;;;;76.43;35.60;;;9.60;99.90;;;;;;9867945;30;20099;-78
2022/09/29 00:48:12;;;;;;;73.83;33.10;;;9.60;99.90;;;;;;9868871;30;20042;-80
2022/09/29 00:53:15;;;;;;;62.40;29.07;;;9.50;99.90;;;;;;9868019;30;20024;-80
2022/09/29 00:58:39;;;;;;;48.13;26.33;;;9.60;99.90;;;;;;9864392;30;20682;-79
2022/09/29 01:03:45;;;;;;;77.17;33.17;;;9.60;99.90;;;;;;9862616;30;20059;-77
2022/09/29 01:08:58;;;;;;;51.42;24.85;;;9.60;99.90;;;;;;9867782;30;20393;-78
2022/09/29 01:14:03;;;;;;;42.30;20.33;;;9.60;99.90;;;;;;9866295;30;20075;-80
2022/09/29 01:19:15;;;;;;;55.13;24.35;;;9.60;99.90;;;;;;9860589;30;20036;-80
2022/09/29 01:24:16;;;;;;;48.97;23.03;;;9.60;99.90;;;;;;9866815;30;20097;-79
2022/09/29 01:29:44;;;;;;;35.80;19.13;;;9.50;99.90;;;;;;9865523;30;20092;-80
2022/09/29 01:35:11;;;;;;;44.67;20.23;;;9.50;99.90;;;;;;9863381;30;20392;-79
2022/09/29 01:40:16;;;;;;;39.70;19.83;;;9.50;99.90;;;;;;9860977;30;20062;-80
2022/09/29 01:45:32;;;;;;;41.37;20.60;;;9.50;99.90;;;;;;9862676;30;20085;-80
2022/09/29 01:50:41;;;;;;;53.58;22.60;;;9.60;99.90;;;;;;9866462;30;20297;-80
2022/09/29 01:55:46;;;;;;;46.90;22.30;;;9.50;99.90;;;;;;9864170;30;20078;-80
2022/09/29 02:00:52;;;;;;;60.50;27.08;;;9.40;99.90;;;;;;9865684;30;20032;-78
2022/09/29 02:05:59;;;;;;;58.13;25.17;;;9.30;99.90;;;;;;9865822;30;20070;-78
2022/09/29 02:11:05;;;;;;;55.17;24.07;;;9.40;99.90;;;;;;9864807;30;20103;-78
2022/09/29 02:16:11;;;;;;;50.67;23.47;;;9.40;99.90;;;;;;9864559;30;20092;-78
2022/09/29 02:21:11;;;;;;;44.30;23.40;;;9.40;99.90;;;;;;9865226;30;20035;-79
2022/09/29 02:26:13;;;;;;;71.00;28.07;;;9.40;99.90;;;;;;9863492;30;20035;-78
2022/09/29 02:31:15;;;;;;;56.20;25.93;;;9.40;99.90;;;;;;9864737;30;20044;-78
2022/09/29 02:36:34;;;;;;;60.17;27.63;;;9.40;99.90;;;;;;9864123;30;20039;-78
2022/09/29 02:41:37;;;;;;;51.30;25.27;;;9.40;99.90;;;;;;9861611;30;20036;-80
2022/09/29 02:46:51;;;;;;;57.53;25.63;;;9.30;99.90;;;;;;9857812;30;20035;-78
2022/09/29 02:51:57;;;;;;;77.60;30.43;;;9.30;99.90;;;;;;9863734;30;20089;-80
2022/09/29 02:57:16;;;;;;;60.97;30.33;;;9.20;99.90;;;;;;9859738;30;20047;-79
2022/09/29 03:02:24;;;;;;;71.03;31.77;;;9.20;99.90;;;;;;9862291;30;20568;-79
2022/09/29 03:07:25;;;;;;;79.27;32.37;;;9.10;99.90;;;;;;9862772;30;20089;-81
2022/09/29 03:12:25;;;;;;;88.03;35.93;;;9.00;99.90;;;;;;9861484;30;20111;-80
2022/09/29 03:17:26;;;;;;;73.90;33.30;;;9.00;99.90;;;;;;9861967;30;20051;-82
2022/09/29 03:22:26;;;;;;;76.63;33.47;;;9.10;99.90;;;;;;9861369;30;20039;-80
2022/09/29 03:27:27;;;;;;;74.27;30.87;;;9.00;99.90;;;;;;9859212;30;20042;-79
2022/09/29 03:32:27;;;;;;;87.20;36.30;;;9.10;99.90;;;;;;9861156;30;20043;-78
2022/09/29 03:37:28;;;;;;;62.10;29.33;;;9.20;99.90;;;;;;9862090;30;20039;-81
2022/09/29 03:42:28;;;;;;;77.23;35.10;;;9.10;99.90;;;;;;9861709;30;20036;-79
2022/09/29 03:47:29;;;;;;;69.57;32.90;;;9.20;99.90;;;;;;9861600;30;20119;-79
2022/09/29 03:52:29;;;;;;;91.87;37.47;;;9.20;99.90;;;;;;9858429;30;20561;-78
2022/09/29 03:57:30;;;;;;;87.20;37.67;;;9.20;99.90;;;;;;9861039;30;20047;-80
2022/09/29 04:02:33;;;;;;;66.07;31.73;;;9.10;99.90;;;;;;9860099;30;20055;-80
2022/09/29 04:07:33;;;;;;;78.47;32.57;;;9.20;99.90;;;;;;9859123;30;20044;-79
2022/09/29 04:12:34;;;;;;;73.53;34.33;;;9.20;99.90;;;;;;9859720;30;20047;-78
2022/09/29 04:17:34;;;;;;;91.97;44.07;;;9.20;99.90;;;;;;9857731;30;20059;-81
2022/09/29 04:22:35;;;;;;;92.90;37.70;;;9.20;99.90;;;;;;9856879;30;20481;-79
2022/09/29 04:27:36;;;;;;;90.33;37.73;;;9.20;99.90;;;;;;9859491;30;20044;-78
2022/09/29 04:32:36;;;;;;;91.13;37.90;;;9.10;99.90;;;;;;9860983;30;20044;-78
2022/09/29 04:37:37;;;;;;;76.07;34.83;;;9.10;99.90;;;;;;9860730;30;20056;-78
2022/09/29 04:42:37;;;;;;;81.43;35.53;;;9.10;99.90;;;;;;9861233;30;20096;-78
2022/09/29 04:47:38;;;;;;;90.57;38.83;;;9.10;99.90;;;;;;9861801;30;20040;-77
2022/09/29 04:52:42;;;;;;;93.67;39.90;;;9.10;99.90;;;;;;9860428;30;20044;-79
2022/09/29 04:57:43;;;;;;;98.77;40.63;;;9.20;99.90;;;;;;9860481;30;20048;-76
2022/09/29 05:02:44;;;;;;;98.43;39.47;;;9.20;99.90;;;;;;9860034;30;20463;-77
2022/09/29 05:07:44;;;;;;;79.90;37.90;;;9.10;99.90;;;;;;9860686;30;20039;-77
2022/09/29 05:12:49;;;;;;;70.53;34.43;;;9.10;99.90;;;;;;9860657;30;20186;-77
2022/09/29 05:17:49;;;;;;;100.27;41.93;;;9.10;99.90;;;;;;9861614;30;20042;-78
2022/09/29 05:22:50;;;;;;;96.00;41.70;;;9.10;99.90;;;;;;9866989;30;20039;-77
2022/09/29 05:27:50;;;;;;;104.80;48.10;;;9.20;99.90;;;;;;9866961;30;20513;-79
2022/09/29 05:32:51;;;;;;;88.20;41.83;;;9.20;99.90;;;;;;9866892;30;20035;-77
2022/09/29 05:37:52;;;;;;;101.60;44.43;;;9.20;99.90;;;;;;9866667;30;20109;-77
2022/09/29 05:42:52;;;;;;;88.93;40.27;;;9.30;99.90;;;;;;9866227;30;20035;-77
2022/09/29 05:47:53;;;;;;;83.27;39.77;;;9.30;99.90;;;;;;9866263;30;20869;-79
2022/09/29 05:52:54;;;;;;;96.57;41.50;;;9.30;99.90;;;;;;9865721;30;20036;-77
2022/09/29 05:57:54;;;;;;;106.20;47.00;;;9.30;99.90;;;;;;9865967;30;20512;-78
2022/09/29 06:02:58;;;;;;;73.43;38.70;;;9.40;99.90;;;;;;9865972;30;20536;-76
2022/09/29 06:08:02;;;;;;;70.57;36.77;;;9.60;99.90;;;;;;9865285;30;20066;-77
2022/09/29 06:13:03;;;;;;;66.37;34.97;;;9.60;99.90;;;;;;9865442;30;20046;-79
2022/09/29 06:18:04;;;;;;;70.35;34.67;;;9.70;99.90;;;;;;9864841;30;20408;-78
2022/09/29 06:23:04;;;;;;;78.23;36.10;;;9.80;99.90;;;;;;9865289;30;20040;-79
2022/09/29 06:28:05;;;;;;;80.50;36.40;;;9.90;99.90;;;;;;9864452;30;20046;-77
2022/09/29 06:33:05;;;;;;;74.17;35.57;;;10.00;99.90;;;;;;9864550;30;20036;-77
2022/09/29 06:38:06;;;;;;;68.63;32.97;;;10.10;99.90;;;;;;9864429;30;20043;-79
2022/09/29 06:43:07;;;;;;;73.88;35.28;;;10.20;99.90;;;;;;9864491;30;20034;-80
2022/09/29 06:48:08;;;;;;;55.92;30.05;;;10.30;99.90;;;;;;9864045;30;20031;-80
2022/09/29 06:53:09;;;;;;;59.58;30.67;;;10.40;99.90;;;;;;9863768;30;20074;-77
2022/09/29 06:58:09;;;;;;;46.58;26.13;;;10.60;99.90;;;;;;9863565;30;20123;-78
2022/09/29 07:03:10;;;;;;;40.25;23.75;;;10.70;99.90;;;;;;9863932;30;20067;-78
2022/09/29 07:08:10;;;;;;;35.63;20.65;;;10.80;99.90;;;;;;9863679;30;20032;-77
2022/09/29 07:13:11;;;;;;;24.63;15.85;;;10.80;99.90;;;;;;9863796;30;20035;-76
2022/09/29 07:18:12;;;;;;;29.55;17.85;;;11.00;99.90;;;;;;9862591;30;20046;-78
2022/09/29 07:23:12;;;;;;;35.17;20.02;;;11.00;99.90;;;;;;9862848;30;20107;-78
2022/09/29 07:28:13;;;;;;;39.83;24.00;;;11.10;99.90;;;;;;9863057;30;20194;-79
2022/09/29 07:33:13;;;;;;;31.92;20.98;;;11.10;99.90;;;;;;9859879;30;20066;-80
2022/09/29 07:38:14;;;;;;;37.70;24.05;;;11.20;99.90;;;;;;9862332;30;20165;-77
2022/09/29 07:43:14;;;;;;;33.33;21.42;;;11.10;99.90;;;;;;9861369;30;20032;-80
2022/09/29 07:48:16;;;;;;;28.17;17.45;;;11.10;99.90;;;;;;9862419;30;20089;-80
2022/09/29 07:53:17;;;;;;;31.38;17.80;;;11.20;99.90;;;;;;9862519;30;20043;-81
2022/09/29 07:58:17;;;;;;;23.52;14.10;;;11.10;99.90;;;;;;9862294;30;20093;-78
2022/09/29 08:03:18;;;;;;;29.33;18.45;;;11.20;99.90;;;;;;9861566;30;20109;-79
2022/09/29 08:08:18;;;;;;;29.23;18.40;;;11.50;99.90;;;;;;9862079;30;20032;-78
2022/09/29 08:13:19;;;;;;;35.75;21.73;;;11.50;99.90;;;;;;9861579;30;20039;-78
2022/09/29 08:18:19;;;;;;;27.20;17.27;;;11.60;99.90;;;;;;9861755;30;20048;-78
2022/09/29 08:23:20;;;;;;;29.50;18.60;;;11.80;99.90;;;;;;9861540;30;20040;-78
2022/09/29 08:28:21;;;;;;;24.27;16.75;;;11.80;99.90;;;;;;9861106;30;20097;-79
2022/09/29 08:33:22;;;;;;;28.15;16.23;;;11.90;99.90;;;;;;9860830;30;20050;-79
2022/09/29 08:38:26;;;;;;;26.60;17.75;;;11.90;99.90;;;;;;9861098;30;20048;-78
2022/09/29 08:43:49;;;;;;;44.25;30.38;;;11.90;99.90;;;;;;9861189;30;20119;-80
2022/09/29 08:48:51;;;;;;;32.47;21.33;;;12.10;99.90;;;;;;9861073;30;20649;-80
2022/09/29 08:53:56;;;;;;;48.70;29.20;;;12.20;99.90;;;;;;9863241;30;20035;-78
2022/09/29 08:58:56;;;;;;;22.53;14.30;;;12.30;99.90;;;;;;9867556;30;20040;-79
2022/09/29 09:04:05;;;;;;;25.67;18.08;;;12.30;99.90;;;;;;9867838;30;20421;-81
2022/09/29 09:09:12;;;;;;;21.73;13.43;;;12.40;99.90;;;;;;9867580;30;20469;-80
2022/09/29 09:14:22;;;;;;;24.05;15.63;;;12.70;99.90;;;;;;9867962;30;20438;-80
2022/09/29 09:19:34;;;;;;;16.48;9.30;;;12.80;99.90;;;;;;9866865;30;20706;-79
2022/09/29 09:25:12;;;;;;;17.02;9.35;;;12.80;99.90;;;;;;9866826;30;20050;-81
2022/09/29 09:30:16;;;;;;;12.13;8.10;;;12.80;99.90;;;;;;9852839;30;20070;-79
2022/09/29 09:35:48;;;;;;;13.50;8.30;;;13.30;99.90;;;;;;9866633;30;20038;-78
2022/09/29 09:40:53;;;;;;;17.23;9.93;;;13.20;99.90;;;;;;9866813;30;20127;-78
2022/09/29 09:46:12;;;;;;;17.97;11.10;;;13.10;99.90;;;;;;9866707;30;20040;-78
2022/09/29 09:51:34;;;;;;;13.85;7.97;;;12.90;99.90;;;;;;9866182;30;20027;-79
2022/09/29 09:56:59;;;;;;;16.08;7.75;;;12.80;99.90;;;;;;9861040;30;20074;-80
2022/09/29 10:01:59;;;;;;;13.23;7.85;;;12.90;99.90;;;;;;9865870;30;20054;-78
2022/09/29 10:07:00;;;;;;;11.20;6.65;;;13.10;99.90;;;;;;9864830;30;20042;-79
2022/09/29 10:12:01;;;;;;;10.73;6.13;;;13.30;99.90;;;;;;9865550;30;20125;-79
2022/09/29 10:17:06;;;;;;;11.20;6.60;;;13.10;99.90;;;;;;9865156;30;20036;-78
2022/09/29 10:22:14;;;;;;;23.90;15.50;;;13.00;99.90;;;;;;9865040;30;20069;-79
2022/09/29 10:27:20;;;;;;;14.23;8.52;;;12.70;99.90;;;;;;9862320;30;20032;-81
2022/09/29 10:32:35;;;;;;;14.60;9.15;;;12.40;99.90;;;;;;9864838;30;20040;-79
2022/09/29 10:37:39;;;;;;;8.90;6.10;;;12.40;99.90;;;;;;9860387;30;20051;-79
2022/09/29 10:42:42;;;;;;;11.10;6.60;;;12.30;99.90;;;;;;9864048;30;20028;-79
2022/09/29 10:47:47;;;;;;;13.38;8.18;;;12.40;99.90;;;;;;9864419;30;20031;-79
2022/09/29 10:52:57;;;;;;;14.77;7.88;;;12.50;99.90;;;;;;9864330;30;20032;-79
2022/09/29 10:58:00;;;;;;;13.20;7.78;;;12.60;99.90;;;;;;9859331;30;20035;-81
2022/09/29 11:03:21;;;;;;;13.70;8.25;;;12.60;99.90;;;;;;9861962;30;20138;-79
2022/09/29 11:08:24;;;;;;;18.63;9.63;;;12.40;99.90;;;;;;9863072;30;20089;-79
2022/09/29 11:13:25;;;;;;;15.50;8.27;;;12.40;99.90;;;;;;9858114;30;20035;-79
2022/09/29 11:18:35;;;;;;;16.83;10.05;;;12.20;99.90;;;;;;9861884;30;20048;-81
2022/09/29 11:24:01;;;;;;;13.75;8.32;;;12.00;99.90;;;;;;9862787;30;20061;-79
2022/09/29 11:29:09;;;;;;;22.25;11.55;;;12.00;99.90;;;;;;9853785;30;20058;-79
2022/09/29 11:34:41;;;;;;;15.85;9.65;;;12.00;99.90;;;;;;9862658;30;20100;-79
2022/09/29 11:39:54;;;;;;;21.10;10.52;;;11.80;99.90;;;;;;9857542;30;20079;-79
2022/09/29 11:44:59;;;;;;;17.40;9.93;;;11.80;99.90;;;;;;9862041;30;20055;-80
2022/09/29 11:50:12;;;;;;;27.20;11.80;;;11.90;99.90;;;;;;9862390;30;20035;-80
2022/09/29 11:55:27;;;;;;;27.60;13.73;;;12.10;99.90;;;;;;9856685;30;20034;-80
2022/09/29 12:01:00;;;;;;;23.55;11.52;;;12.80;99.90;;;;;;9861805;30;20696;-79
2022/09/29 12:06:28;;;;;;;20.65;11.25;;;13.30;99.90;;;;;;9827760;30;20067;-80
2022/09/29 12:11:56;;;;;;;14.20;7.03;;;13.80;99.90;;;;;;9861427;30;20212;-79
2022/09/29 12:17:01;;;;;;;14.02;7.38;;;14.00;99.90;;;;;;9859786;30;20082;-79
2022/09/29 12:22:06;;;;;;;12.87;6.83;;;14.30;99.90;;;;;;9861100;30;20043;-81
2022/09/29 12:27:24;;;;;;;15.18;7.50;;;14.10;99.90;;;;;;9860235;30;20036;-80
2022/09/29 12:32:39;;;;;;;14.73;8.23;;;14.10;99.90;;;;;;9861167;30;20070;-79
2022/09/29 12:37:46;;;;;;;12.07;6.75;;;14.20;99.90;;;;;;9862017;30;20040;-81
2022/09/29 12:43:11;;;;;;;9.35;5.10;;;14.20;99.90;;;;;;9854889;30;20031;-81
2022/09/29 12:48:31;;;;;;;10.93;5.05;;;14.30;99.90;;;;;;9853706;30;20044;-80
2022/09/29 12:53:43;;;;;;;12.48;5.00;;;14.80;99.90;;;;;;9861934;30;20397;-81
2022/09/29 12:58:52;;;;;;;8.77;4.60;;;14.60;99.90;;;;;;9861241;30;20046;-79
2022/09/29 13:04:16;;;;;;;10.35;5.03;;;14.10;99.90;;;;;;9836307;30;20126;-80
2022/09/29 13:09:35;;;;;;;9.50;4.70;;;13.90;99.90;;;;;;9846533;30;20047;-78
2022/09/29 13:14:59;;;;;;;7.40;4.25;;;13.90;99.90;;;;;;9831405;30;20036;-79
2022/09/29 13:20:38;;;;;;;8.55;4.20;;;13.80;99.90;;;;;;9837981;30;20048;-78
2022/09/29 13:25:58;;;;;;;8.23;4.38;;;13.60;99.90;;;;;;9824615;30;20139;-78
2022/09/29 13:31:04;;;;;;;8.15;4.53;;;13.50;99.90;;;;;;9840603;30;20775;-80
2022/09/29 13:36:05;;;;;;;6.68;4.30;;;13.40;99.90;;;;;;9824338;30;20524;-81
2022/09/29 13:41:16;;;;;;;10.70;5.57;;;13.50;99.90;;;;;;9827968;30;20044;-79
2022/09/29 13:46:31;;;;;;;8.63;5.00;;;13.40;99.90;;;;;;9831360;30;20131;-79
2022/09/29 13:51:44;;;;;;;10.57;6.17;;;13.50;99.90;;;;;;9865742;30;20098;-82
2022/09/29 13:56:48;;;;;;;8.07;4.70;;;13.50;99.90;;;;;;9850347;30;20313;-80
2022/09/29 14:01:50;;;;;;;9.10;5.60;;;13.60;99.90;;;;;;9865676;30;20044;-79
2022/09/29 14:06:51;;;;;;;11.05;6.00;;;13.50;99.90;;;;;;9858605;30;20040;-82
2022/09/29 14:11:55;;;;;;;15.25;6.28;;;13.50;99.90;;;;;;9861244;30;20040;-78
2022/09/29 14:17:11;;;;;;;10.68;6.15;;;13.50;99.90;;;;;;9862508;30;20424;-78
2022/09/29 14:22:30;;;;;;;14.02;7.38;;;13.50;99.90;;;;;;9862526;30;20065;-79
2022/09/29 14:27:48;;;;;;;10.63;7.10;;;13.50;99.90;;;;;;9865115;30;20039;-79
2022/09/29 14:32:58;;;;;;;15.35;7.07;;;13.60;99.90;;;;;;9863947;30;20090;-79
2022/09/29 14:38:13;;;;;;;13.93;6.40;;;13.60;99.90;;;;;;9864571;30;20047;-79
2022/09/29 14:43:16;;;;;;;12.40;6.63;;;13.60;99.90;;;;;;9860323;30;20563;-80
2022/09/29 14:54:14;;;;;;;8.85;4.82;;;13.50;99.90;;;;;;9861880;30;20040;-80
2022/09/29 14:59:29;;;;;;;8.52;5.03;;;13.40;99.90;;;;;;9862947;30;20069;-82
2022/09/29 15:04:30;;;;;;;9.50;4.88;;;13.30;99.90;;;;;;9856796;30;20064;-79
2022/09/29 15:09:35;;;;;;;7.97;4.63;;;13.20;99.90;;;;;;9862521;30;20039;-80
2022/09/29 15:14:36;;;;;;;7.70;4.75;;;13.00;99.90;;;;;;9860360;30;20082;-80
2022/09/29 15:20:08;;;;;;;8.95;5.32;;;12.80;99.90;;;;;;9861439;30;20170;-79
2022/09/29 15:25:36;;;;;;;15.85;6.13;;;12.60;99.90;;;;;;9862168;30;20038;-78
2022/09/29 15:30:37;;;;;;;14.32;6.50;;;12.40;99.90;;;;;;9862598;30;20028;-81
2022/09/29 15:35:43;;;;;;;12.43;5.68;;;12.20;99.90;;;;;;9862928;30;20628;-81
2022/09/29 15:40:51;;;;;;;;;;;12.10;99.90;;;;;;9862146;30;20053;-79
2022/09/29 15:45:53;;;;;;;8.90;5.85;;;11.90;99.90;;;;;;9861527;30;19918;-78
2022/09/29 15:50:54;;;;;;;13.05;6.88;;;11.60;99.90;;;;;;9861662;30;20075;-79
2022/09/29 15:55:55;;;;;;;14.30;6.07;;;11.40;99.90;;;;;;9861790;30;20501;-78
2022/09/29 16:00:58;;;;;;;11.95;6.90;;;11.30;99.90;;;;;;9858384;30;20293;-77
2022/09/29 16:06:01;;;;;;;13.93;7.82;;;11.10;99.90;;;;;;9860934;30;20059;-79
2022/09/29 16:11:19;;;;;;;11.50;7.28;;;10.90;99.90;;;;;;9860601;30;20035;-80
2022/09/29 16:16:27;;;;;;;11.95;7.68;;;10.90;99.90;;;;;;9860540;30;20031;-78
2022/09/29 16:21:34;;;;;;;10.98;6.97;;;10.80;99.90;;;;;;9861478;30;20528;-78
2022/09/29 16:26:37;;;;;;;11.52;8.00;;;10.70;99.90;;;;;;9860189;30;20162;-79
2022/09/29 16:31:43;;;;;;;16.10;8.48;;;10.70;99.90;;;;;;9853787;30;20733;-79
2022/09/29 16:36:46;;;;;;;;;;;10.60;99.90;;;;;;9856690;30;20061;-82
2022/09/29 16:41:49;;;;;;;14.30;7.88;;;10.30;99.90;;;;;;9859577;30;19913;-80
2022/09/29 16:47:01;;;;;;;13.80;8.13;;;10.20;99.90;;;;;;9855464;30;20028;-79
2022/09/29 16:52:11;;;;;;;15.23;9.20;;;10.20;99.90;;;;;;9859462;30;20063;-80
2022/09/29 16:57:25;;;;;;;17.80;9.40;;;10.00;99.90;;;;;;9842575;30;20039;-80
2022/09/29 17:02:26;;;;;;;14.27;8.40;;;9.90;99.90;;;;;;9858011;30;20066;-79
2022/09/29 17:07:28;;;;;;;16.75;9.15;;;9.90;99.90;;;;;;9856983;30;20088;-79
2022/09/29 17:12:29;;;;;;;17.13;8.25;;;9.90;99.90;;;;;;9859415;30;20028;-79
2022/09/29 17:17:30;;;;;;;16.73;9.95;;;10.00;99.90;;;;;;9862119;30;20402;-79
2022/09/29 17:22:35;;;;;;;21.93;12.87;;;10.00;99.90;;;;;;9866407;30;20043;-81
2022/09/29 17:32:57;;;;;;;44.47;23.15;;;10.00;99.90;;;;;;9863788;30;20063;-79
2022/09/29 17:37:58;;;;;;;34.65;20.52;;;10.00;99.90;;;;;;9863679;30;20611;-77
2022/09/29 17:43:00;;;;;;;36.20;19.77;;;9.90;99.90;;;;;;9861380;30;20051;-81
2022/09/29 17:48:02;;;;;;;30.55;19.90;;;9.80;99.90;;;;;;9864629;30;20099;-81
2022/09/29 17:53:03;;;;;;;29.83;19.35;;;9.60;99.90;;;;;;9866476;30;20074;-80
2022/09/29 17:58:04;;;;;;;42.77;28.53;;;9.50;99.90;;;;;;9865838;30;20036;-79
2022/09/29 18:03:08;;;;;;;47.80;29.20;;;9.40;99.90;;;;;;9859455;30;20056;-82
2022/09/29 18:08:16;;;;;;;55.13;30.30;;;9.20;99.90;;;;;;9864112;30;20526;-79
2022/09/29 18:13:18;;;;;;;44.93;26.93;;;9.00;99.90;;;;;;9863264;30;20035;-79
2022/09/29 18:18:20;;;;;;;46.40;26.93;;;9.00;99.90;;;;;;9860510;30;20052;-80
2022/09/29 18:23:22;;;;;;;50.57;28.40;;;8.90;99.90;;;;;;9860039;30;20044;-79
2022/09/29 18:28:26;;;;;;;42.23;25.67;;;8.80;99.90;;;;;;9862313;30;20046;-82
2022/09/29 18:33:27;;;;;;;40.97;23.10;;;8.80;99.90;;;;;;9862057;30;20090;-79
2022/09/29 18:38:28;;;;;;;35.73;21.07;;;8.80;99.90;;;;;;9862874;30;20044;-80
2022/09/29 18:43:29;;;;;;;31.27;19.53;;;8.70;99.90;;;;;;9863849;30;20074;-81
2022/09/29 18:48:30;;;;;;;32.03;19.23;;;8.80;99.90;;;;;;9841748;30;20049;-80
2022/09/29 18:53:30;;;;;;;33.60;20.47;;;8.70;99.90;;;;;;9844551;30;20062;-80
2022/09/29 18:58:32;;;;;;;35.60;19.77;;;8.70;99.90;;;;;;9860601;30;20071;-78
2022/09/29 19:03:32;;;;;;;39.90;20.87;;;8.60;99.90;;;;;;9856377;30;20402;-80
2022/09/29 19:08:33;;;;;;;37.23;21.77;;;8.50;99.90;;;;;;9857631;30;20074;-81
2022/09/29 19:13:34;;;;;;;44.73;22.80;;;8.30;99.90;;;;;;9860693;30;20104;-80
2022/09/29 19:18:34;;;;;;;39.23;20.47;;;8.30;99.90;;;;;;9853529;30;20062;-78
2022/09/29 19:23:36;;;;;;;54.67;27.27;;;8.20;99.90;;;;;;9852661;30;20044;-79
2022/09/29 19:28:38;;;;;;;68.67;33.73;;;8.20;99.90;;;;;;9862991;30;20191;-79
2022/09/29 19:33:40;;;;;;;62.83;32.27;;;8.10;99.90;;;;;;9861230;30;20047;-79
2022/09/29 19:38:41;;;;;;;58.73;32.63;;;8.10;99.90;;;;;;9862164;30;20039;-79
2022/09/29 19:43:42;;;;;;;66.43;35.57;;;8.20;99.90;;;;;;9863055;30;20042;-78
2022/09/29 19:48:43;;;;;;;74.47;38.07;;;8.10;99.90;;;;;;9860396;30;20043;-80
2022/09/29 19:53:43;;;;;;;62.47;33.27;;;8.10;99.90;;;;;;9862149;30;20043;-81
2022/09/29 19:58:44;;;;;;;70.07;36.80;;;8.10;99.90;;;;;;9861617;30;20074;-80
2022/09/29 20:03:46;;;;;;;86.03;44.20;;;7.90;99.90;;;;;;9859100;30;20475;-79
2022/09/29 20:08:48;;;;;;;76.87;41.70;;;7.90;99.90;;;;;;9862280;30;20055;-79
2022/09/29 20:13:49;;;;;;;65.17;36.43;;;8.00;99.90;;;;;;9861783;30;20051;-79
2022/09/29 20:18:50;;;;;;;69.20;38.20;;;8.00;99.90;;;;;;9856879;30;20135;-78
2022/09/29 20:23:51;;;;;;;67.53;37.10;;;7.90;99.90;;;;;;9861061;30;20044;-79
2022/09/29 20:28:51;;;;;;;65.13;37.40;;;7.90;99.90;;;;;;9855480;30;20038;-80
2022/09/29 20:33:52;;;;;;;63.80;36.17;;;7.90;99.90;;;;;;9860759;30;20489;-79
2022/09/29 20:38:52;;;;;;;69.60;37.63;;;7.90;99.90;;;;;;9860934;30;20047;-79
2022/09/29 20:43:54;;;;;;;59.10;32.93;;;7.90;99.90;;;;;;9860530;30;20102;-81
2022/09/29 20:48:57;;;;;;;67.80;35.77;;;7.80;99.90;;;;;;9862343;30;20112;-80
2022/09/29 20:53:59;;;;;;;57.50;31.73;;;7.80;99.90;;;;;;9866842;30;20032;-79
2022/09/29 20:59:01;;;;;;;66.03;34.17;;;7.70;99.90;;;;;;9867333;30;20046;-81
2022/09/29 21:04:07;;;;;;;58.90;32.50;;;7.80;99.90;;;;;;9866638;30;20150;-79
2022/09/29 21:09:28;;;;;;;59.63;32.95;;;7.80;99.90;;;;;;9862514;30;20039;-80
2022/09/29 21:14:28;;;;;;;59.77;34.67;;;7.90;99.90;;;;;;9864197;30;20044;-79
2022/09/29 21:19:29;;;;;;;56.97;31.70;;;8.00;99.90;;;;;;9866291;30;20400;-79
2022/09/29 21:24:30;;;;;;;63.43;32.90;;;8.10;99.90;;;;;;9866722;30;20043;-80
2022/09/29 21:29:31;;;;;;;62.03;34.80;;;8.00;99.90;;;;;;9864657;30;20800;-81
2022/09/29 21:34:31;;;;;;;59.47;33.60;;;8.10;99.90;;;;;;9865249;30;20508;-79
2022/09/29 21:39:32;;;;;;;52.57;29.67;;;8.10;99.90;;;;;;9865786;30;20447;-79
2022/09/29 21:44:32;;;;;;;54.40;31.90;;;8.10;99.90;;;;;;9866430;30;20048;-80
2022/09/29 21:49:33;;;;;;;62.43;34.30;;;8.00;99.90;;;;;;9848993;30;20044;-79
2022/09/29 21:54:36;;;;;;;56.60;32.33;;;7.90;99.90;;;;;;9866270;30;20095;-79
2022/09/29 21:59:37;;;;;;;59.27;33.77;;;7.80;99.90;;;;;;9865018;30;20084;-79
2022/09/29 22:04:37;;;;;;;61.30;33.40;;;7.80;99.90;;;;;;9862185;30;20804;-79
2022/09/29 22:09:38;;;;;;;55.67;31.37;;;7.70;99.90;;;;;;9865200;30;20035;-81
2022/09/29 22:14:38;;;;;;;58.23;31.80;;;7.70;99.90;;;;;;9864559;30;20044;-80
2022/09/29 22:19:39;;;;;;;61.40;31.97;;;7.70;99.90;;;;;;9859562;30;20079;-80
2022/09/29 22:24:39;;;;;;;63.10;33.47;;;7.70;99.90;;;;;;9864728;30;20638;-79
2022/09/29 22:29:40;;;;;;;60.23;32.50;;;7.60;99.90;;;;;;9864715;30;20111;-78
2022/09/29 22:34:42;;;;;;;60.87;33.87;;;7.60;99.90;;;;;;9848014;30;20086;-79
2022/09/29 22:39:42;;;;;;;64.27;36.67;;;7.60;99.90;;;;;;9858651;30;20056;-79
2022/09/29 22:44:43;;;;;;;60.57;33.97;;;7.70;99.90;;;;;;9860408;30;20507;-78
2022/09/29 22:49:43;;;;;;;60.40;35.27;;;7.70;99.90;;;;;;9860104;30;20051;-79
2022/09/29 22:54:44;;;;;;;58.63;33.07;;;7.70;99.90;;;;;;9864652;30;20035;-79
2022/09/29 22:59:44;;;;;;;52.17;30.30;;;7.70;99.90;;;;;;9863830;30;20493;-78
2022/09/29 23:04:46;;;;;;;46.23;27.73;;;7.60;99.90;;;;;;9861440;30;20067;-80
2022/09/29 23:09:46;;;;;;;52.57;28.70;;;7.70;99.90;;;;;;9863394;30;20035;-78
2022/09/29 23:14:48;;;;;;;57.93;30.00;;;7.60;99.90;;;;;;9827773;30;20044;-79
2022/09/29 23:19:48;;;;;;;53.50;29.10;;;7.50;99.90;;;;;;9846624;30;20054;-79
2022/09/29 23:24:49;;;;;;;50.83;29.10;;;7.40;99.90;;;;;;9847319;30;20510;-78
2022/09/29 23:29:50;;;;;;;52.73;29.90;;;7.40;99.90;;;;;;9863570;30;20040;-80
2022/09/29 23:34:50;;;;;;;53.80;30.00;;;7.30;99.90;;;;;;9841209;30;20048;-79
2022/09/29 23:39:53;;;;;;;47.10;27.53;;;7.30;99.90;;;;;;9826875;30;20055;-79
2022/09/29 23:44:53;;;;;;;46.77;24.70;;;7.30;99.90;;;;;;9862754;30;20040;-78
2022/09/29 23:49:54;;;;;;;44.10;24.17;;;7.30;99.90;;;;;;9842441;30;20044;-78
2022/09/29 23:54:54;;;;;;;42.40;23.13;;;7.30;99.90;;;;;;9825969;30;20047;-81
2022/09/29 23:59:55;;;;;;;44.53;23.40;;;7.30;99.90;;;;;;9826757;30;20055;-79
